Terminal Aerodrome Forecast
Issued by NWS

Home | Current Version | Previous Version | Text Only | Print | Product List | Glossary On
Versions: 1 2 3 4 5 6 7 8 9 10 11 12 13 14 15 16 17 18 19 20 21 22 23 24 25 26 27 28 29 30 31 32 33 34 35 36
700
FTUS46 KLOX 061808 AAA
TAFLAX
TAF AMD
KLAX 061808Z 0618/0724 24008KT P6SM VCSH SCT020 BKN030
     FM062000 25012KT P6SM SCT025 SCT050
     FM070400 27008KT P6SM VCSH SCT025 BKN050
     FM070800 VRB03KT P6SM -SHRA BKN020 BKN030
     FM071600 22006KT P6SM VCSH SCT025 OVC040
     FM072000 25010KT P6SM SCT030=

USA.gov is the U.S. government's official web portal to all federal, state and local government web resources and services.